Terminal Aerodrome Forecast
Issued by NWS

Home | Current Version | Previous Version | Text Only | Print | Product List | Glossary On
Versions: 1 2 3 4 5 6 7 8 9 10 11 12 13 14 15 16 17 18 19 20
000
FTAK31 PAFA 270528
TAFAQT
TAF
PAQT 270528Z 2706/2806 06020KT 1SM BR OVC015
     FM271100 07020KT 1 1/2SM HZ OVC015
     FM271800 04010KT 2SM BR BKN050
     FM272300 34010KT 2SM BR SKC=

USA.gov is the U.S. government's official web portal to all federal, state and local government web resources and services.